createdAt,value
2024-03-06T00:00:05.096Z,83.10
2024-03-06T00:02:35.506Z,83.00
2024-03-06T00:05:04.086Z,82.90
2024-03-06T00:07:32.589Z,83.00
2024-03-06T00:10:02.361Z,83.00
2024-03-06T00:12:31.086Z,82.90
2024-03-06T00:14:59.478Z,82.90
2024-03-06T00:17:28.295Z,82.90
2024-03-06T00:19:56.885Z,83.00
2024-03-06T00:22:25.092Z,82.90
2024-03-06T00:24:53.400Z,83.00
2024-03-06T00:27:22.858Z,83.00
2024-03-06T00:29:51.311Z,83.10
2024-03-06T00:32:19.523Z,83.00
2024-03-06T00:34:48.279Z,83.10
2024-03-06T00:37:16.480Z,83.10
2024-03-06T00:39:45.029Z,83.10
2024-03-06T00:42:14.968Z,83.10
2024-03-06T00:44:45.054Z,83.10
2024-03-06T00:47:13.282Z,83.10
2024-03-06T00:49:43.731Z,83.20
2024-03-06T00:52:11.917Z,83.20
2024-03-06T00:54:40.160Z,83.30
2024-03-06T00:57:08.317Z,83.40
2024-03-06T00:59:36.685Z,83.40
2024-03-06T01:02:07.393Z,83.50
2024-03-06T01:04:35.860Z,83.50
2024-03-06T01:07:04.271Z,83.50
2024-03-06T01:09:32.681Z,84.50
2024-03-06T01:12:00.932Z,83.60
2024-03-06T01:14:29.396Z,83.60
2024-03-06T01:16:57.880Z,83.50
2024-03-06T01:19:27.362Z,83.50
2024-03-06T01:21:56.017Z,83.60
2024-03-06T01:24:24.168Z,83.60
2024-03-06T01:26:52.566Z,83.70
2024-03-06T01:29:20.749Z,83.80
2024-03-06T01:31:49.269Z,83.90
2024-03-06T01:34:17.381Z,84.00
2024-03-06T01:36:47.338Z,84.00
2024-03-06T01:39:15.469Z,84.00
2024-03-06T01:41:48.247Z,84.10
2024-03-06T01:44:16.492Z,84.20
2024-03-06T01:46:46.094Z,84.40
2024-03-06T01:49:20.359Z,84.20
2024-03-06T01:51:58.533Z,84.20
2024-03-06T01:54:27.475Z,84.30
2024-03-06T01:56:57.041Z,84.30
2024-03-06T01:59:35.720Z,84.30
2024-03-06T02:02:06.094Z,84.30
2024-03-06T02:04:34.718Z,84.20
2024-03-06T02:07:05.160Z,84.20
2024-03-06T02:09:33.266Z,84.20
2024-03-06T02:12:01.923Z,84.20
2024-03-06T02:14:31.517Z,84.30
2024-03-06T02:17:00.009Z,84.20
2024-03-06T02:19:41.096Z,84.20
2024-03-06T02:22:11.276Z,85.30
2024-03-06T02:24:40.450Z,84.20
2024-03-06T02:27:09.404Z,84.20
2024-03-06T02:29:37.479Z,84.20
2024-03-06T02:32:05.778Z,84.20
2024-03-06T02:34:34.213Z,84.20
2024-03-06T02:37:04.314Z,84.20
2024-03-06T02:39:33.809Z,84.20
2024-03-06T02:42:02.181Z,84.20
2024-03-06T02:44:31.144Z,84.20
2024-03-06T02:46:59.717Z,84.30
2024-03-06T02:49:27.810Z,84.30
2024-03-06T02:51:56.096Z,84.30
2024-03-06T02:54:26.389Z,84.40
2024-03-06T02:56:55.852Z,84.40
2024-03-06T02:59:25.384Z,84.50
2024-03-06T03:01:53.842Z,84.50
2024-03-06T03:04:22.244Z,84.60
2024-03-06T03:06:50.469Z,84.60
2024-03-06T03:09:18.884Z,84.70
2024-03-06T03:11:47.016Z,84.70
2024-03-06T03:14:17.152Z,84.70
2024-03-06T03:16:46.844Z,84.70
2024-03-06T03:19:15.281Z,84.70
2024-03-06T03:21:45.664Z,84.70
2024-03-06T03:24:13.831Z,84.60
2024-03-06T03:26:43.275Z,84.50
2024-03-06T03:29:11.986Z,84.40
2024-03-06T03:31:41.726Z,84.40
2024-03-06T03:34:10.263Z,84.50
2024-03-06T03:36:42.483Z,84.40
2024-03-06T03:39:16.677Z,84.50
2024-03-06T03:41:48.165Z,84.50
2024-03-06T03:44:17.433Z,84.60
2024-03-06T03:46:47.236Z,84.70
2024-03-06T03:49:15.822Z,84.70
2024-03-06T03:51:43.953Z,84.70
2024-03-06T03:54:12.372Z,84.80
2024-03-06T03:56:40.902Z,84.80
2024-03-06T03:59:09.937Z,84.70
2024-03-06T04:01:38.351Z,84.80
2024-03-06T04:04:09.961Z,84.80
2024-03-06T04:06:38.050Z,84.90
2024-03-06T04:09:07.112Z,85.00
2024-03-06T04:11:37.469Z,85.00
2024-03-06T04:14:06.051Z,85.00
2024-03-06T04:16:34.593Z,85.00
2024-03-06T04:19:03.030Z,85.10
2024-03-06T04:21:32.569Z,85.00
2024-03-06T04:24:00.627Z,85.10
2024-03-06T04:26:29.047Z,85.20
2024-03-06T04:28:57.180Z,85.20
2024-03-06T04:31:26.033Z,85.30
2024-03-06T04:33:54.374Z,85.40
2024-03-06T04:36:22.527Z,85.40
2024-03-06T04:38:52.781Z,85.40
2024-03-06T04:41:21.221Z,85.50
2024-03-06T04:43:52.291Z,85.60
2024-03-06T04:46:20.759Z,85.60
2024-03-06T04:48:49.724Z,85.60
2024-03-06T04:51:20.791Z,85.60
2024-03-06T04:53:49.409Z,85.70
2024-03-06T04:56:20.559Z,85.70
2024-03-06T04:58:48.701Z,85.70
2024-03-06T05:01:17.145Z,85.80
2024-03-06T05:59:11.324Z,85.90
2024-03-06T06:01:40.837Z,85.80
2024-03-06T06:04:10.470Z,86.00
2024-03-06T06:06:38.605Z,86.00
2024-03-06T06:09:07.264Z,86.00
2024-03-06T06:11:36.068Z,86.10
2024-03-06T06:14:04.401Z,86.30
2024-03-06T06:16:38.143Z,86.30
2024-03-06T06:19:07.794Z,86.40
2024-03-06T06:21:37.559Z,86.30
2024-03-06T06:24:06.360Z,87.20
2024-03-06T06:26:34.996Z,86.50
2024-03-06T06:29:03.778Z,86.50
2024-03-06T06:31:32.225Z,86.50
2024-03-06T06:34:00.380Z,86.60
2024-03-06T06:36:31.064Z,86.60
2024-03-06T06:39:00.622Z,86.70
2024-03-06T06:41:29.913Z,86.70
2024-03-06T06:43:58.026Z,86.70
2024-03-06T06:46:26.438Z,86.80
2024-03-06T06:48:54.965Z,86.90
2024-03-06T06:51:24.632Z,86.90
2024-03-06T06:53:55.382Z,86.90
2024-03-06T06:56:25.386Z,86.90
2024-03-06T06:58:53.594Z,86.80
2024-03-06T07:01:22.957Z,86.60
2024-03-06T07:03:51.123Z,86.40
2024-03-06T07:06:19.290Z,86.30
2024-03-06T07:08:48.300Z,86.20
2024-03-06T07:11:19.304Z,86.30
2024-03-06T07:13:47.748Z,86.50
2024-03-06T07:16:15.886Z,86.60
2024-03-06T07:18:44.273Z,86.90
2024-03-06T07:21:13.039Z,86.90
2024-03-06T07:23:41.176Z,87.00
2024-03-06T07:26:10.002Z,87.00
2024-03-06T07:28:39.555Z,87.10
2024-03-06T07:31:07.943Z,87.10
2024-03-06T07:33:39.119Z,87.20
2024-03-06T07:36:08.163Z,87.20
2024-03-06T07:38:36.335Z,87.30
2024-03-06T07:41:04.864Z,87.30
2024-03-06T07:43:33.025Z,87.30
2024-03-06T07:46:02.817Z,87.40
2024-03-06T07:48:31.288Z,87.40
2024-03-06T07:51:00.109Z,87.50
2024-03-06T07:53:28.576Z,87.50
2024-03-06T07:55:56.719Z,87.70
2024-03-06T07:58:24.898Z,87.70
2024-03-06T08:00:56.742Z,87.70
2024-03-06T08:03:26.975Z,88.50
2024-03-06T08:05:55.584Z,87.60
2024-03-06T08:08:25.780Z,87.60
2024-03-06T08:10:53.937Z,87.70
2024-03-06T08:13:22.308Z,87.70
2024-03-06T08:15:50.781Z,87.60
2024-03-06T08:18:19.088Z,87.60
2024-03-06T08:20:49.002Z,87.70
2024-03-06T08:23:17.183Z,87.80
2024-03-06T08:25:45.651Z,87.90
2024-03-06T08:28:13.829Z,87.70
2024-03-06T08:30:41.919Z,87.70
2024-03-06T08:33:10.683Z,87.70
2024-03-06T08:35:38.906Z,87.60
2024-03-06T08:38:08.659Z,87.50
2024-03-06T08:40:38.880Z,87.10
2024-03-06T08:43:07.419Z,87.00
2024-03-06T08:45:35.705Z,86.90
2024-03-06T08:48:05.184Z,86.80
2024-03-06T08:50:33.377Z,86.90
2024-03-06T08:53:03.586Z,86.90
2024-03-06T08:55:33.188Z,86.80
2024-03-06T08:58:02.976Z,86.80
2024-03-06T09:00:31.209Z,86.80
2024-03-06T09:03:00.725Z,86.60
2024-03-06T09:05:28.891Z,86.50
2024-03-06T09:08:01.584Z,86.40
2024-03-06T09:10:32.251Z,86.30
2024-03-06T09:13:00.621Z,86.10
2024-03-06T09:15:29.010Z,86.00
2024-03-06T09:17:57.152Z,86.00
2024-03-06T09:20:26.222Z,85.90
2024-03-06T09:22:55.462Z,85.70
2024-03-06T09:25:25.908Z,85.60
2024-03-06T09:27:56.840Z,85.40
2024-03-06T09:30:25.245Z,85.10
2024-03-06T09:32:53.701Z,85.00
2024-03-06T09:35:22.220Z,84.80
2024-03-06T09:37:50.694Z,84.60
2024-03-06T09:40:27.144Z,84.40
2024-03-06T09:42:56.795Z,84.20
2024-03-06T09:45:25.297Z,84.20
2024-03-06T09:47:54.686Z,84.00
2024-03-06T09:50:28.439Z,84.00
2024-03-06T09:52:58.227Z,84.00
2024-03-06T09:55:28.965Z,84.00
2024-03-06T09:57:58.551Z,84.10
2024-03-06T10:00:27.818Z,84.90
2024-03-06T10:03:00.392Z,83.90
2024-03-06T10:05:29.680Z,83.80
2024-03-06T10:07:59.435Z,83.70
2024-03-06T10:10:30.919Z,83.70
2024-03-06T10:13:03.596Z,83.50
2024-03-06T10:15:32.334Z,83.60
2024-03-06T10:18:24.151Z,83.30
2024-03-06T10:20:53.835Z,82.60
2024-03-06T10:23:22.112Z,82.70
2024-03-06T10:25:53.682Z,82.60
2024-03-06T10:28:24.492Z,82.40
2024-03-06T10:30:53.462Z,82.30
2024-03-06T10:33:22.007Z,82.50
2024-03-06T10:35:50.996Z,82.50
2024-03-06T10:38:21.157Z,82.50
2024-03-06T10:40:52.906Z,82.60
2024-03-06T10:43:26.016Z,82.50
2024-03-06T10:46:02.318Z,82.10
2024-03-06T10:48:31.628Z,81.70
2024-03-06T10:51:04.128Z,81.90
2024-03-06T10:53:33.804Z,81.60
2024-03-06T10:56:03.955Z,81.40
2024-03-06T10:58:35.608Z,81.00
2024-03-06T11:01:04.591Z,80.60
2024-03-06T11:03:33.466Z,80.20
2024-03-06T11:06:04.980Z,80.30
2024-03-06T11:08:35.067Z,80.50
2024-03-06T11:11:21.816Z,80.40
2024-03-06T11:13:51.746Z,80.00
2024-03-06T11:16:19.876Z,79.90
2024-03-06T11:18:49.153Z,79.90
2024-03-06T11:21:35.662Z,79.80
2024-03-06T11:24:26.580Z,78.60
2024-03-06T11:27:00.240Z,78.70
2024-03-06T11:29:52.230Z,79.00
2024-03-06T11:32:20.533Z,78.90
2024-03-06T11:34:48.977Z,79.30
2024-03-06T11:37:24.282Z,79.10
2024-03-06T11:39:53.725Z,78.90
2024-03-06T11:42:37.499Z,79.20
2024-03-06T11:45:20.536Z,78.80
2024-03-06T11:47:59.630Z,78.60
2024-03-06T11:50:29.198Z,78.70
2024-03-06T11:52:58.313Z,79.10
2024-03-06T11:55:27.707Z,78.80
2024-03-06T11:57:56.218Z,79.10
2024-03-06T12:00:26.257Z,79.20
2024-03-06T12:02:54.584Z,79.10
2024-03-06T12:05:23.728Z,79.20
2024-03-06T12:07:52.820Z,79.20
2024-03-06T12:10:21.756Z,79.30
2024-03-06T12:12:49.866Z,78.90
2024-03-06T12:15:20.586Z,78.60
2024-03-06T12:17:53.355Z,78.40
2024-03-06T12:20:21.663Z,78.40
2024-03-06T12:22:51.853Z,78.20
2024-03-06T12:25:23.986Z,77.80
2024-03-06T12:27:53.666Z,77.90
2024-03-06T12:30:23.734Z,78.00
2024-03-06T12:33:00.643Z,77.80
2024-03-06T12:35:29.331Z,77.60
2024-03-06T12:37:57.495Z,77.60
2024-03-06T12:40:26.457Z,77.70
2024-03-06T12:42:54.660Z,77.80
2024-03-06T12:45:23.315Z,78.00
2024-03-06T12:47:52.385Z,78.00
2024-03-06T12:50:22.438Z,77.80
2024-03-06T12:52:50.592Z,77.80
2024-03-06T12:55:18.775Z,77.70
2024-03-06T12:57:48.259Z,77.60
2024-03-06T13:00:17.725Z,77.30
2024-03-06T13:02:46.568Z,77.30
2024-03-06T13:05:15.594Z,77.00
2024-03-06T13:07:46.440Z,76.90
2024-03-06T13:10:14.748Z,76.70
2024-03-06T13:12:43.881Z,76.90
2024-03-06T13:15:12.363Z,77.00
2024-03-06T13:17:40.961Z,77.30
2024-03-06T13:20:13.373Z,77.40
2024-03-06T13:22:41.945Z,77.60
2024-03-06T13:25:12.212Z,77.70
2024-03-06T13:27:40.425Z,77.60
2024-03-06T13:30:10.429Z,77.50
2024-03-06T13:32:38.580Z,77.00
2024-03-06T13:35:10.959Z,76.90
2024-03-06T13:37:39.032Z,76.80
2024-03-06T13:40:09.798Z,76.70
2024-03-06T13:42:39.454Z,76.90
2024-03-06T13:45:12.775Z,76.50
2024-03-06T13:47:42.178Z,76.50
2024-03-06T13:50:11.579Z,76.10
2024-03-06T13:52:40.129Z,76.00
2024-03-06T13:55:09.544Z,75.40
2024-03-06T13:57:40.842Z,75.60
2024-03-06T14:00:13.520Z,75.40
2024-03-06T14:02:42.056Z,75.00
2024-03-06T14:05:10.502Z,75.00
2024-03-06T14:07:38.907Z,75.30
2024-03-06T14:10:09.361Z,75.40
2024-03-06T14:12:39.135Z,75.20
2024-03-06T14:15:13.934Z,75.00
2024-03-06T14:17:43.040Z,75.40
2024-03-06T14:20:13.567Z,75.00
2024-03-06T14:22:42.496Z,75.90
2024-03-06T14:25:11.833Z,74.40
2024-03-06T14:27:42.153Z,74.40
2024-03-06T14:30:12.322Z,74.40
2024-03-06T14:32:41.504Z,74.50
2024-03-06T14:35:10.900Z,73.90
2024-03-06T14:37:40.293Z,74.10
2024-03-06T14:40:10.354Z,74.30
2024-03-06T14:42:38.959Z,74.50
2024-03-06T14:45:09.974Z,74.40
2024-03-06T14:47:38.656Z,74.70
2024-03-06T14:50:07.926Z,74.40
2024-03-06T14:52:37.063Z,74.10
2024-03-06T14:55:05.577Z,73.50
2024-03-06T14:57:33.980Z,73.60
2024-03-06T15:00:02.255Z,73.40
2024-03-06T15:02:32.283Z,73.40
2024-03-06T15:05:00.853Z,73.70
2024-03-06T15:07:28.955Z,73.80
2024-03-06T15:09:59.287Z,73.40
2024-03-06T15:12:27.464Z,73.60
2024-03-06T15:14:58.805Z,74.00
2024-03-06T15:17:28.131Z,74.20
2024-03-06T15:19:58.364Z,73.60
2024-03-06T15:22:26.536Z,73.20
2024-03-06T15:24:55.975Z,73.30
2024-03-06T15:27:24.144Z,73.30
2024-03-06T15:29:52.574Z,73.50
2024-03-06T15:32:20.807Z,73.50
2024-03-06T15:34:49.242Z,73.40
2024-03-06T15:37:18.727Z,73.10
2024-03-06T15:39:47.131Z,73.20
2024-03-06T15:42:15.237Z,73.10
2024-03-06T15:44:43.771Z,73.20
2024-03-06T15:47:12.502Z,73.30
2024-03-06T15:49:41.423Z,73.30
2024-03-06T15:52:09.837Z,73.40
2024-03-06T15:54:39.808Z,73.40
2024-03-06T15:57:09.248Z,73.50
2024-03-06T15:59:37.863Z,73.60
2024-03-06T16:02:07.264Z,73.60
2024-03-06T16:04:35.799Z,73.70
2024-03-06T16:07:03.888Z,73.90
2024-03-06T16:09:32.259Z,73.90
2024-03-06T16:12:01.804Z,73.90
2024-03-06T16:14:30.226Z,73.90
2024-03-06T16:16:59.775Z,74.00
2024-03-06T16:19:34.719Z,74.00
2024-03-06T16:22:07.486Z,73.90
2024-03-06T16:24:35.576Z,73.90
2024-03-06T16:27:05.584Z,73.90
2024-03-06T16:29:33.924Z,73.90
2024-03-06T16:32:03.937Z,74.10
2024-03-06T16:34:34.040Z,73.90
2024-03-06T16:37:03.484Z,74.00
2024-03-06T16:39:31.807Z,74.10
2024-03-06T16:42:00.009Z,74.20
2024-03-06T16:44:31.307Z,74.30
2024-03-06T16:46:59.391Z,74.50
2024-03-06T16:49:27.561Z,74.60
2024-03-06T16:51:56.052Z,74.70
2024-03-06T16:54:24.169Z,74.70
2024-03-06T16:56:52.622Z,74.80
2024-03-06T16:59:20.734Z,74.40
2024-03-06T17:01:50.592Z,74.40
2024-03-06T17:04:18.736Z,74.30
2024-03-06T17:06:47.128Z,74.40
2024-03-06T17:09:15.272Z,74.30
2024-03-06T17:11:46.300Z,74.10
2024-03-06T17:14:14.800Z,73.90
2024-03-06T17:16:43.780Z,73.90
2024-03-06T17:19:13.243Z,74.10
2024-03-06T17:21:41.564Z,74.10
2024-03-06T17:24:09.788Z,73.90
2024-03-06T17:26:40.025Z,73.60
2024-03-06T17:29:09.516Z,73.60
2024-03-06T17:31:38.703Z,73.60
2024-03-06T17:34:07.292Z,73.60
2024-03-06T17:36:37.697Z,73.20
2024-03-06T17:39:10.552Z,73.10
2024-03-06T17:41:39.104Z,73.00
2024-03-06T17:44:07.480Z,72.90
2024-03-06T17:46:35.907Z,72.80
2024-03-06T17:49:04.303Z,72.70
2024-03-06T17:51:32.520Z,72.90
2024-03-06T17:54:02.335Z,73.10
2024-03-06T17:56:30.778Z,73.00
2024-03-06T17:58:58.876Z,73.00
2024-03-06T18:01:27.473Z,72.90
2024-03-06T18:03:55.765Z,72.80
2024-03-06T18:06:24.600Z,72.90
2024-03-06T18:08:53.382Z,72.70
2024-03-06T18:11:23.106Z,72.80
2024-03-06T18:13:51.645Z,72.70
2024-03-06T18:16:19.764Z,72.50
2024-03-06T18:18:48.156Z,72.40
2024-03-06T18:21:16.290Z,72.20
2024-03-06T18:23:44.493Z,72.30
2024-03-06T18:26:12.937Z,72.60
2024-03-06T18:28:42.573Z,72.60
2024-03-06T18:31:10.659Z,72.40
2024-03-06T18:33:39.507Z,72.30
2024-03-06T18:36:08.314Z,72.40
2024-03-06T18:38:37.159Z,72.40
2024-03-06T18:41:05.507Z,72.10
2024-03-06T18:43:33.583Z,71.90
2024-03-06T18:46:03.342Z,72.70
2024-03-06T18:48:31.464Z,71.80
2024-03-06T18:51:00.435Z,71.90
2024-03-06T18:53:29.636Z,72.00
2024-03-06T18:55:58.166Z,72.00
2024-03-06T18:58:26.440Z,71.80
2024-03-06T19:00:54.543Z,71.80
2024-03-06T19:03:27.759Z,72.00
2024-03-06T19:05:55.953Z,72.00
2024-03-06T19:08:24.158Z,72.10
2024-03-06T19:10:52.534Z,72.20
2024-03-06T19:13:20.931Z,72.20
2024-03-06T19:15:49.085Z,72.20
2024-03-06T19:18:17.336Z,72.00
2024-03-06T19:20:46.880Z,72.20
2024-03-06T19:23:15.365Z,72.40
2024-03-06T19:25:44.448Z,72.20
2024-03-06T19:28:13.438Z,72.00
2024-03-06T19:30:41.721Z,72.20
2024-03-06T19:33:10.765Z,72.20
2024-03-06T19:35:41.222Z,72.30
2024-03-06T19:38:15.048Z,72.30
2024-03-06T19:40:44.326Z,72.30
2024-03-06T19:43:13.437Z,72.60
2024-03-06T19:45:41.541Z,72.40
2024-03-06T19:48:10.604Z,72.50
2024-03-06T19:50:40.616Z,72.50
2024-03-06T19:53:10.449Z,72.60
2024-03-06T19:55:38.694Z,72.80
2024-03-06T19:58:07.124Z,72.80
2024-03-06T20:00:35.569Z,72.60
2024-03-06T20:03:03.773Z,72.80
2024-03-06T20:05:33.048Z,72.70
2024-03-06T20:08:02.075Z,72.80
2024-03-06T20:10:31.606Z,72.70
2024-03-06T20:13:02.941Z,72.80
2024-03-06T20:15:33.367Z,72.80
2024-03-06T20:18:02.894Z,72.80
2024-03-06T20:20:32.970Z,72.70
2024-03-06T20:23:08.031Z,72.90
2024-03-06T20:25:40.358Z,72.80
2024-03-06T20:28:10.191Z,73.00
2024-03-06T20:30:41.483Z,73.20
2024-03-06T20:33:10.183Z,73.20
2024-03-06T20:35:38.417Z,73.00
2024-03-06T20:38:07.014Z,72.80
2024-03-06T20:40:36.651Z,72.90
2024-03-06T20:43:06.449Z,73.00
2024-03-06T20:45:34.862Z,72.70
2024-03-06T20:48:03.291Z,72.50
2024-03-06T20:50:31.837Z,72.50
2024-03-06T20:52:59.972Z,72.50
2024-03-06T20:55:28.414Z,72.50
2024-03-06T20:57:56.521Z,72.50
2024-03-06T21:00:26.328Z,72.50
2024-03-06T21:02:54.457Z,72.50
2024-03-06T21:05:23.342Z,72.20
2024-03-06T21:07:51.460Z,71.90
2024-03-06T21:10:20.528Z,71.90
2024-03-06T21:12:49.373Z,72.40
2024-03-06T21:15:18.260Z,71.50
2024-03-06T21:17:47.941Z,71.50
2024-03-06T21:20:17.003Z,71.30
2024-03-06T21:22:46.082Z,71.50
2024-03-06T21:25:19.203Z,71.30
2024-03-06T21:27:48.721Z,71.10
2024-03-06T21:30:16.830Z,71.40
2024-03-06T21:32:44.986Z,71.00
2024-03-06T21:35:14.808Z,71.00
2024-03-06T21:37:42.984Z,71.40
2024-03-06T21:40:14.765Z,71.50
2024-03-06T21:42:43.326Z,71.50
2024-03-06T21:45:13.482Z,71.50
2024-03-06T21:47:41.747Z,71.50
2024-03-06T21:50:11.037Z,71.50
2024-03-06T21:52:40.481Z,71.50
2024-03-06T21:55:10.070Z,71.30
2024-03-06T21:57:38.295Z,71.40
2024-03-06T22:00:08.417Z,71.60
2024-03-06T22:02:36.623Z,71.70
2024-03-06T22:05:05.142Z,71.70
2024-03-06T22:07:33.181Z,71.80
2024-03-06T22:10:03.481Z,71.70
2024-03-06T22:12:31.565Z,71.70
2024-03-06T22:15:00.083Z,71.70
2024-03-06T22:17:30.417Z,71.70
2024-03-06T22:19:58.824Z,71.70
2024-03-06T22:22:27.130Z,71.80
2024-03-06T22:24:55.650Z,71.90
2024-03-06T22:27:25.845Z,71.70
2024-03-06T22:29:54.261Z,71.70
2024-03-06T22:32:22.437Z,71.90
2024-03-06T22:34:50.524Z,71.90
2024-03-06T22:37:20.698Z,72.00
2024-03-06T22:39:48.780Z,73.00
2024-03-06T22:42:17.245Z,71.90
2024-03-06T22:44:46.958Z,72.00
2024-03-06T22:47:15.420Z,72.00
2024-03-06T22:49:43.510Z,72.00
2024-03-06T22:52:11.865Z,72.00
2024-03-06T22:54:39.929Z,72.10
2024-03-06T22:57:08.018Z,72.10
2024-03-06T22:59:36.462Z,72.20
2024-03-06T23:02:08.276Z,72.10
2024-03-06T23:04:36.508Z,72.00
2024-03-06T23:07:04.837Z,71.90
2024-03-06T23:09:33.482Z,72.00
2024-03-06T23:12:01.716Z,72.00
2024-03-06T23:14:30.303Z,72.20
2024-03-06T23:16:58.582Z,72.40
2024-03-06T23:19:28.339Z,72.50
2024-03-06T23:21:58.082Z,72.40
2024-03-06T23:24:26.371Z,72.30
2024-03-06T23:26:54.614Z,72.10
2024-03-06T23:29:22.793Z,72.20
2024-03-06T23:31:51.755Z,72.20
2024-03-06T23:34:19.876Z,72.20
2024-03-06T23:36:49.647Z,72.30
2024-03-06T23:39:17.714Z,72.20
2024-03-06T23:41:46.149Z,72.10
2024-03-06T23:44:14.319Z,71.90
2024-03-06T23:46:42.663Z,72.00
2024-03-06T23:49:10.746Z,72.10
2024-03-06T23:51:39.081Z,72.20
2024-03-06T23:54:07.863Z,72.30
2024-03-06T23:56:35.954Z,72.40
2024-03-06T23:59:04.424Z,72.30
